Nearby METAR Reports

 

RPLL - Ninoy Aquino Int, Philippines
Distance from station: 0 19km
Updated: 01/19/2019 2:00am
Few Clouds
Few Clouds
 Wind from NE
Wind: NE 6 km/h
Temperature: 25°C
Dew Point: 19°C
Humidity: 69%
Barometer: 1013 hPa
Clouds: Few Clouds
Visibility: 10 km
Cloud details: Few Clouds 914 m
2019/01/18 18:00 RPLL 181800Z 04003KT 9999 FEW030 25/19 Q1013 NOSIG RMK A2991
RPLB - Olongapo/Subic, Philippines
Distance from station: WNW 93km
Updated: 01/19/2019 2:00am
Few Clouds
Few Clouds
 Wind from E
Wind: E 6 km/h
Temperature: 23°C
Dew Point: 18°C
Humidity: 74%
Barometer: 1014 hPa
Clouds: Few Clouds
Visibility: 10 km
Cloud details: Few Clouds 610 m
2019/01/18 18:00 RPLB 181800Z 10003KT 9999 FEW020 23/18 Q1014 NOSIG RMK A2994
 
RPLC - Angeles/Pampanga, Philippines
Distance from station: NNW 101km
Updated: 01/19/2019 2:00am
Partly cloudy
Partly cloudy
 Wind from NW
Wind: NW 4 km/h
Temperature: 23°C
Dew Point: 19°C
Humidity: 78%
Barometer: 1015 hPa
Clouds: Partly cloudy
Visibility: 10 km
Cloud details: Few Clouds 610 m
Partly cloudy 9144 m
2019/01/18 18:00 RPLC 181800Z 32002KT 9999 FEW020 SCT300 23/19 Q1015 NOSIG RMK A2997
RPLI - Laoag Intl(Ph-Ar, Philippines
Distance from station: N 427km
Updated: 01/19/2019 2:00am
Mostly cloudy
Mostly cloudy
 Wind from NE
Wind: NE 20 km/h
Temperature: 24°C
Dew Point: 21°C
Humidity: 83%
Barometer: 1014 hPa
Clouds: Mostly cloudy
Visibility: 10 km
Cloud details: Few Clouds 549 m
Mostly cloudy 2743 m
2019/01/18 18:00 RPLI 181800Z 05011KT 9999 R19/P2000N FEW018 BKN090 24/21 Q1014 NOSIG RMK A2994
 
RPVM - Mactan-Cebu, Philippines
Distance from station: SE 553km
Updated: 01/19/2019 2:00am
Mostly cloudy
Mostly cloudy
 Wind from NNE
Wind: NNE 19 km/h
Temperature: 25°C
Dew Point: 21°C
Humidity: 79%
Barometer: 1011 hPa
Clouds: Mostly cloudy
Visibility: 10 km
Cloud details: Few Clouds 610 m
Mostly cloudy 9144 m
2019/01/18 18:00 RPVM 181800Z 02010KT 9999 FEW020 BKN300 25/21 Q1011 RMK A2985
RPVP - Puerto Princesa, Philippines
Distance from station: SE 553km
Updated: 01/19/2019 2:00am
Few Clouds
Few Clouds
 Wind from ENE
Wind: ENE 22 km/h
Temperature: 26°C
Dew Point: 22°C
Humidity: 79%
Barometer: 1012 hPa
Clouds: Few Clouds
Visibility: 10 km
Cloud details: Few Clouds 610 m
2019/01/18 18:00 RPVP 181800Z 07012KT 9999 FEW020 26/22 Q1012 RMK A2988
 
RPMD - Davao City, Philippines
Distance from station: SE 553km
Updated: 01/19/2019 2:00am
Mostly cloudy
Mostly cloudy
 Wind from N
Wind: N 15 km/h
Temperature: 24°C
Dew Point: 22°C
Humidity: 89%
Barometer: 1010 hPa
Clouds: Mostly cloudy
Visibility: 10 km
Cloud details: Partly cloudy 488 m
Mostly cloudy 2743 m
Mostly cloudy 8839 m
2019/01/18 18:00 RPMD 181800Z 35008KT 9999 SCT016 BKN090 BKN290 24/22 Q1010 RMK A2983
RPMR - General Santos City, Philippines
Distance from station: SE 553km
Updated: 01/18/2019 5:00pm
NOT Current
Overcast
Overcast
 Wind from NE
Wind: NE 19 km/h
Temperature: 30°C
Heat Index: 32°C
Dew Point: 20°C
Humidity: 55%
Barometer: 1010 hPa
Clouds: Overcast
Visibility: 10 km
Cloud details: Few Clouds 549 m
Overcast 2438 m
2019/01/18 09:00 RPMR 180900Z 04010KT 9999 FEW018 OVC080 30/20 Q1010 NOSIG RMK A2983
 
RPMZ - Zamboanga, Philippines
Distance from station: NE 14km
Updated: 01/19/2019 2:00am
Partly cloudy
Partly cloudy
 Wind from varies
Wind: varies 2 km/h
Temperature: 23°C
Dew Point: 22°C
Humidity: 94%
Barometer: 1010 hPa
Clouds: Partly cloudy
Visibility: 10 km
Cloud details: Few Clouds 518 m
Partly cloudy 9144 m
2019/01/18 18:00 RPMZ 181800Z VRB01KT 9999 FEW017 SCT300 23/22 Q1010 RMK A2983
www.000webhost.com